sensor_id;sensor_type;location;lat;lon;timestamp;P1;durP1;ratioP1;P2;durP2;ratioP2
5831;SDS011;50943;51.448;7.646;2023-07-31T00:02:03;10.97;;;3.87;;
5831;SDS011;50943;51.448;7.646;2023-07-31T00:04:30;9.27;;;3.73;;
5831;SDS011;50943;51.448;7.646;2023-07-31T00:06:57;7.93;;;4.17;;
5831;SDS011;50943;51.448;7.646;2023-07-31T00:09:24;11.70;;;4.97;;
5831;SDS011;50943;51.448;7.646;2023-07-31T00:11:50;11.70;;;4.70;;
5831;SDS011;50943;51.448;7.646;2023-07-31T00:14:18;10.00;;;4.87;;
5831;SDS011;50943;51.448;7.646;2023-07-31T00:16:44;9.80;;;5.03;;
5831;SDS011;50943;51.448;7.646;2023-07-31T00:19:11;15.40;;;5.07;;
5831;SDS011;50943;51.448;7.646;2023-07-31T00:21:37;13.30;;;5.57;;
5831;SDS011;50943;51.448;7.646;2023-07-31T00:24:04;18.20;;;5.50;;
5831;SDS011;50943;51.448;7.646;2023-07-31T00:26:31;15.07;;;6.00;;
5831;SDS011;50943;51.448;7.646;2023-07-31T00:28:57;12.70;;;5.70;;
5831;SDS011;50943;51.448;7.646;2023-07-31T00:31:25;10.83;;;5.33;;
5831;SDS011;50943;51.448;7.646;2023-07-31T00:33:51;12.23;;;5.40;;
5831;SDS011;50943;51.448;7.646;2023-07-31T00:36:18;19.97;;;6.07;;
5831;SDS011;50943;51.448;7.646;2023-07-31T00:38:44;17.13;;;5.80;;
5831;SDS011;50943;51.448;7.646;2023-07-31T00:41:11;11.40;;;5.40;;
5831;SDS011;50943;51.448;7.646;2023-07-31T00:43:37;16.70;;;5.50;;
5831;SDS011;50943;51.448;7.646;2023-07-31T00:46:04;15.03;;;5.57;;
5831;SDS011;50943;51.448;7.646;2023-07-31T00:48:32;10.33;;;5.33;;
5831;SDS011;50943;51.448;7.646;2023-07-31T00:50:59;20.00;;;5.17;;
5831;SDS011;50943;51.448;7.646;2023-07-31T00:53:26;10.13;;;5.10;;
5831;SDS011;50943;51.448;7.646;2023-07-31T00:55:53;12.30;;;5.40;;
5831;SDS011;50943;51.448;7.646;2023-07-31T00:58:20;12.83;;;6.13;;
5831;SDS011;50943;51.448;7.646;2023-07-31T01:00:46;18.67;;;6.00;;
5831;SDS011;50943;51.448;7.646;2023-07-31T01:03:13;13.07;;;4.60;;
5831;SDS011;50943;51.448;7.646;2023-07-31T01:05:43;13.53;;;5.70;;
5831;SDS011;50943;51.448;7.646;2023-07-31T01:08:18;11.20;;;4.80;;
5831;SDS011;50943;51.448;7.646;2023-07-31T01:10:49;12.83;;;5.73;;
5831;SDS011;50943;51.448;7.646;2023-07-31T01:13:17;20.13;;;6.30;;
5831;SDS011;50943;51.448;7.646;2023-07-31T01:15:44;18.00;;;6.20;;
5831;SDS011;50943;51.448;7.646;2023-07-31T01:18:10;17.33;;;6.23;;
5831;SDS011;50943;51.448;7.646;2023-07-31T01:20:37;14.67;;;6.03;;
5831;SDS011;50943;51.448;7.646;2023-07-31T01:23:18;16.87;;;6.60;;
5831;SDS011;50943;51.448;7.646;2023-07-31T01:26:00;17.17;;;6.80;;
5831;SDS011;50943;51.448;7.646;2023-07-31T01:28:32;14.33;;;6.10;;
5831;SDS011;50943;51.448;7.646;2023-07-31T01:31:04;19.80;;;6.63;;
5831;SDS011;50943;51.448;7.646;2023-07-31T01:33:34;19.97;;;6.83;;
5831;SDS011;50943;51.448;7.646;2023-07-31T01:36:01;22.40;;;6.60;;
5831;SDS011;50943;51.448;7.646;2023-07-31T01:38:27;25.50;;;8.30;;
5831;SDS011;50943;51.448;7.646;2023-07-31T01:40:54;24.53;;;8.57;;
5831;SDS011;50943;51.448;7.646;2023-07-31T01:43:22;17.63;;;7.23;;
5831;SDS011;50943;51.448;7.646;2023-07-31T01:45:49;19.57;;;7.10;;
5831;SDS011;50943;51.448;7.646;2023-07-31T01:48:15;19.83;;;7.47;;
5831;SDS011;50943;51.448;7.646;2023-07-31T01:50:42;17.83;;;7.67;;
5831;SDS011;50943;51.448;7.646;2023-07-31T01:53:08;17.90;;;7.27;;
5831;SDS011;50943;51.448;7.646;2023-07-31T01:55:37;16.23;;;6.63;;
5831;SDS011;50943;51.448;7.646;2023-07-31T01:58:03;17.73;;;6.53;;
5831;SDS011;50943;51.448;7.646;2023-07-31T02:00:31;18.23;;;6.70;;
5831;SDS011;50943;51.448;7.646;2023-07-31T02:02:58;19.20;;;6.47;;
5831;SDS011;50943;51.448;7.646;2023-07-31T02:05:25;16.60;;;7.03;;
5831;SDS011;50943;51.448;7.646;2023-07-31T02:07:52;17.67;;;6.80;;
5831;SDS011;50943;51.448;7.646;2023-07-31T02:10:18;13.23;;;5.80;;
5831;SDS011;50943;51.448;7.646;2023-07-31T02:12:45;16.00;;;5.77;;
5831;SDS011;50943;51.448;7.646;2023-07-31T02:15:11;21.93;;;6.40;;
5831;SDS011;50943;51.448;7.646;2023-07-31T02:17:39;19.00;;;6.60;;
5831;SDS011;50943;51.448;7.646;2023-07-31T02:20:06;20.53;;;6.07;;
5831;SDS011;50943;51.448;7.646;2023-07-31T02:22:34;16.70;;;6.13;;
5831;SDS011;50943;51.448;7.646;2023-07-31T02:25:00;18.47;;;6.47;;
5831;SDS011;50943;51.448;7.646;2023-07-31T02:27:27;14.37;;;5.93;;
5831;SDS011;50943;51.448;7.646;2023-07-31T02:29:53;14.70;;;5.97;;
5831;SDS011;50943;51.448;7.646;2023-07-31T02:32:20;16.90;;;5.90;;
5831;SDS011;50943;51.448;7.646;2023-07-31T02:34:48;19.20;;;6.30;;
5831;SDS011;50943;51.448;7.646;2023-07-31T02:37:15;24.70;;;7.20;;
5831;SDS011;50943;51.448;7.646;2023-07-31T02:39:41;16.40;;;6.50;;
5831;SDS011;50943;51.448;7.646;2023-07-31T02:42:08;14.47;;;5.80;;
5831;SDS011;50943;51.448;7.646;2023-07-31T02:44:34;17.77;;;5.80;;
5831;SDS011;50943;51.448;7.646;2023-07-31T02:47:00;12.23;;;5.70;;
5831;SDS011;50943;51.448;7.646;2023-07-31T02:49:28;13.33;;;5.60;;
5831;SDS011;50943;51.448;7.646;2023-07-31T02:51:56;13.40;;;5.63;;
5831;SDS011;50943;51.448;7.646;2023-07-31T02:54:23;14.20;;;5.43;;
5831;SDS011;50943;51.448;7.646;2023-07-31T02:56:49;15.93;;;5.40;;
5831;SDS011;50943;51.448;7.646;2023-07-31T02:59:16;13.67;;;4.47;;
5831;SDS011;50943;51.448;7.646;2023-07-31T03:01:43;16.63;;;4.83;;
5831;SDS011;50943;51.448;7.646;2023-07-31T03:04:10;10.73;;;4.20;;
5831;SDS011;50943;51.448;7.646;2023-07-31T03:06:36;15.53;;;5.30;;
5831;SDS011;50943;51.448;7.646;2023-07-31T03:09:04;13.63;;;4.70;;
5831;SDS011;50943;51.448;7.646;2023-07-31T03:11:31;13.30;;;4.70;;
5831;SDS011;50943;51.448;7.646;2023-07-31T03:13:58;16.07;;;5.07;;
5831;SDS011;50943;51.448;7.646;2023-07-31T03:16:24;14.23;;;5.30;;
5831;SDS011;50943;51.448;7.646;2023-07-31T03:18:51;13.73;;;5.57;;
5831;SDS011;50943;51.448;7.646;2023-07-31T03:21:17;17.70;;;5.87;;
5831;SDS011;50943;51.448;7.646;2023-07-31T03:23:44;18.67;;;4.60;;
5831;SDS011;50943;51.448;7.646;2023-07-31T03:26:12;18.17;;;4.87;;
5831;SDS011;50943;51.448;7.646;2023-07-31T03:28:38;17.73;;;5.00;;
5831;SDS011;50943;51.448;7.646;2023-07-31T03:31:05;13.67;;;4.67;;
5831;SDS011;50943;51.448;7.646;2023-07-31T03:33:33;10.77;;;4.40;;
5831;SDS011;50943;51.448;7.646;2023-07-31T03:35:59;19.23;;;5.47;;
5831;SDS011;50943;51.448;7.646;2023-07-31T03:38:27;11.30;;;4.80;;
5831;SDS011;50943;51.448;7.646;2023-07-31T03:40:53;18.07;;;4.60;;
5831;SDS011;50943;51.448;7.646;2023-07-31T03:43:21;12.57;;;5.40;;
5831;SDS011;50943;51.448;7.646;2023-07-31T03:45:47;16.33;;;4.90;;
5831;SDS011;50943;51.448;7.646;2023-07-31T03:48:15;16.00;;;5.30;;
5831;SDS011;50943;51.448;7.646;2023-07-31T03:50:42;9.07;;;4.60;;
5831;SDS011;50943;51.448;7.646;2023-07-31T03:53:08;15.70;;;4.70;;
5831;SDS011;50943;51.448;7.646;2023-07-31T03:55:35;15.27;;;5.73;;
5831;SDS011;50943;51.448;7.646;2023-07-31T03:58:01;11.80;;;4.70;;
5831;SDS011;50943;51.448;7.646;2023-07-31T04:00:29;13.07;;;4.90;;
5831;SDS011;50943;51.448;7.646;2023-07-31T04:02:56;17.93;;;4.73;;
5831;SDS011;50943;51.448;7.646;2023-07-31T04:05:22;9.53;;;4.40;;
5831;SDS011;50943;51.448;7.646;2023-07-31T04:07:49;12.47;;;4.37;;
5831;SDS011;50943;51.448;7.646;2023-07-31T04:10:16;16.93;;;5.03;;
5831;SDS011;50943;51.448;7.646;2023-07-31T04:12:42;9.23;;;4.93;;
5831;SDS011;50943;51.448;7.646;2023-07-31T04:15:09;10.40;;;5.00;;
5831;SDS011;50943;51.448;7.646;2023-07-31T04:17:37;21.83;;;4.90;;
5831;SDS011;50943;51.448;7.646;2023-07-31T04:20:04;9.90;;;4.60;;
5831;SDS011;50943;51.448;7.646;2023-07-31T04:22:31;13.40;;;4.50;;
5831;SDS011;50943;51.448;7.646;2023-07-31T04:24:58;12.20;;;4.50;;
5831;SDS011;50943;51.448;7.646;2023-07-31T04:27:24;17.70;;;4.37;;
5831;SDS011;50943;51.448;7.646;2023-07-31T04:29:51;10.77;;;4.53;;
5831;SDS011;50943;51.448;7.646;2023-07-31T04:32:18;15.40;;;4.50;;
5831;SDS011;50943;51.448;7.646;2023-07-31T04:34:47;16.80;;;5.10;;
5831;SDS011;50943;51.448;7.646;2023-07-31T04:37:13;12.70;;;4.33;;
5831;SDS011;50943;51.448;7.646;2023-07-31T04:39:40;13.93;;;4.77;;
5831;SDS011;50943;51.448;7.646;2023-07-31T04:42:06;13.27;;;5.10;;
5831;SDS011;50943;51.448;7.646;2023-07-31T04:44:33;19.43;;;4.77;;
5831;SDS011;50943;51.448;7.646;2023-07-31T04:46:59;29.50;;;5.50;;
5831;SDS011;50943;51.448;7.646;2023-07-31T04:49:27;11.13;;;4.67;;
5831;SDS011;50943;51.448;7.646;2023-07-31T04:51:54;16.17;;;5.33;;
5831;SDS011;50943;51.448;7.646;2023-07-31T04:54:21;12.30;;;4.50;;
5831;SDS011;50943;51.448;7.646;2023-07-31T04:56:47;10.07;;;4.17;;
5831;SDS011;50943;51.448;7.646;2023-07-31T04:59:14;12.20;;;4.93;;
5831;SDS011;50943;51.448;7.646;2023-07-31T05:01:40;14.77;;;4.80;;
5831;SDS011;50943;51.448;7.646;2023-07-31T05:04:07;13.40;;;4.00;;
5831;SDS011;50943;51.448;7.646;2023-07-31T05:06:34;10.70;;;4.57;;
5831;SDS011;50943;51.448;7.646;2023-07-31T05:09:02;10.70;;;4.30;;
5831;SDS011;50943;51.448;7.646;2023-07-31T05:11:28;10.90;;;4.87;;
5831;SDS011;50943;51.448;7.646;2023-07-31T05:13:55;11.30;;;4.67;;
5831;SDS011;50943;51.448;7.646;2023-07-31T05:16:22;13.63;;;5.90;;
5831;SDS011;50943;51.448;7.646;2023-07-31T05:18:48;12.30;;;4.43;;
5831;SDS011;50943;51.448;7.646;2023-07-31T05:21:15;13.00;;;5.33;;
5831;SDS011;50943;51.448;7.646;2023-07-31T05:23:41;14.07;;;4.10;;
5831;SDS011;50943;51.448;7.646;2023-07-31T05:26:09;17.10;;;5.37;;
5831;SDS011;50943;51.448;7.646;2023-07-31T05:28:36;13.70;;;5.07;;
5831;SDS011;50943;51.448;7.646;2023-07-31T05:31:02;12.90;;;4.90;;
5831;SDS011;50943;51.448;7.646;2023-07-31T05:33:29;10.47;;;4.70;;
5831;SDS011;50943;51.448;7.646;2023-07-31T05:35:57;11.93;;;5.60;;
5831;SDS011;50943;51.448;7.646;2023-07-31T05:38:23;11.67;;;4.87;;
5831;SDS011;50943;51.448;7.646;2023-07-31T05:40:50;17.57;;;5.20;;
5831;SDS011;50943;51.448;7.646;2023-07-31T05:43:17;10.83;;;4.50;;
5831;SDS011;50943;51.448;7.646;2023-07-31T05:45:44;16.83;;;6.17;;
5831;SDS011;50943;51.448;7.646;2023-07-31T05:48:10;13.73;;;4.63;;
5831;SDS011;50943;51.448;7.646;2023-07-31T05:50:37;13.50;;;6.30;;
5831;SDS011;50943;51.448;7.646;2023-07-31T05:53:05;20.53;;;5.70;;
5831;SDS011;50943;51.448;7.646;2023-07-31T05:55:31;10.80;;;6.03;;
5831;SDS011;50943;51.448;7.646;2023-07-31T05:57:58;11.83;;;6.33;;
5831;SDS011;50943;51.448;7.646;2023-07-31T06:00:25;14.43;;;6.37;;
5831;SDS011;50943;51.448;7.646;2023-07-31T06:02:52;12.70;;;5.93;;
5831;SDS011;50943;51.448;7.646;2023-07-31T06:05:19;16.10;;;7.77;;
5831;SDS011;50943;51.448;7.646;2023-07-31T06:07:45;9.90;;;5.70;;
5831;SDS011;50943;51.448;7.646;2023-07-31T06:10:12;12.00;;;5.40;;
5831;SDS011;50943;51.448;7.646;2023-07-31T06:12:39;12.03;;;5.80;;
5831;SDS011;50943;51.448;7.646;2023-07-31T06:15:05;8.30;;;5.20;;
5831;SDS011;50943;51.448;7.646;2023-07-31T06:17:34;11.30;;;4.90;;
5831;SDS011;50943;51.448;7.646;2023-07-31T06:20:01;12.70;;;5.20;;
5831;SDS011;50943;51.448;7.646;2023-07-31T06:22:28;13.60;;;5.50;;
5831;SDS011;50943;51.448;7.646;2023-07-31T06:24:55;13.50;;;5.17;;
5831;SDS011;50943;51.448;7.646;2023-07-31T06:27:21;16.73;;;5.40;;
5831;SDS011;50943;51.448;7.646;2023-07-31T06:29:48;9.80;;;5.27;;
5831;SDS011;50943;51.448;7.646;2023-07-31T06:32:14;9.67;;;5.73;;
5831;SDS011;50943;51.448;7.646;2023-07-31T06:34:42;12.50;;;5.20;;
5831;SDS011;50943;51.448;7.646;2023-07-31T06:37:09;10.10;;;5.67;;
5831;SDS011;50943;51.448;7.646;2023-07-31T06:39:35;14.87;;;6.03;;
5831;SDS011;50943;51.448;7.646;2023-07-31T06:42:02;11.70;;;5.63;;
5831;SDS011;50943;51.448;7.646;2023-07-31T06:44:29;15.50;;;5.80;;
5831;SDS011;50943;51.448;7.646;2023-07-31T06:46:56;8.80;;;5.50;;
5831;SDS011;50943;51.448;7.646;2023-07-31T06:49:22;12.87;;;6.07;;
5831;SDS011;50943;51.448;7.646;2023-07-31T06:51:50;11.87;;;6.10;;
5831;SDS011;50943;51.448;7.646;2023-07-31T06:54:17;11.57;;;5.40;;
5831;SDS011;50943;51.448;7.646;2023-07-31T06:56:43;7.40;;;5.07;;
5831;SDS011;50943;51.448;7.646;2023-07-31T06:59:10;11.80;;;5.60;;
5831;SDS011;50943;51.448;7.646;2023-07-31T07:01:36;9.63;;;4.73;;
5831;SDS011;50943;51.448;7.646;2023-07-31T07:04:03;10.70;;;5.43;;
5831;SDS011;50943;51.448;7.646;2023-07-31T07:06:29;13.07;;;5.23;;
5831;SDS011;50943;51.448;7.646;2023-07-31T07:08:57;8.90;;;4.80;;
5831;SDS011;50943;51.448;7.646;2023-07-31T07:11:24;13.33;;;5.27;;
5831;SDS011;50943;51.448;7.646;2023-07-31T07:13:52;8.87;;;4.80;;
5831;SDS011;50943;51.448;7.646;2023-07-31T07:16:18;9.83;;;5.00;;
5831;SDS011;50943;51.448;7.646;2023-07-31T07:18:45;12.00;;;4.57;;
5831;SDS011;50943;51.448;7.646;2023-07-31T07:21:11;10.47;;;4.53;;
5831;SDS011;50943;51.448;7.646;2023-07-31T07:23:40;7.00;;;3.87;;
5831;SDS011;50943;51.448;7.646;2023-07-31T07:26:08;17.27;;;4.63;;
5831;SDS011;50943;51.448;7.646;2023-07-31T07:28:35;7.47;;;3.57;;
5831;SDS011;50943;51.448;7.646;2023-07-31T07:31:02;7.00;;;3.33;;
5831;SDS011;50943;51.448;7.646;2023-07-31T07:33:28;7.70;;;3.90;;
5831;SDS011;50943;51.448;7.646;2023-07-31T07:35:55;8.70;;;3.67;;
5831;SDS011;50943;51.448;7.646;2023-07-31T07:38:26;8.00;;;4.00;;
5831;SDS011;50943;51.448;7.646;2023-07-31T07:40:52;6.50;;;3.47;;
5831;SDS011;50943;51.448;7.646;2023-07-31T07:43:20;6.97;;;3.90;;
5831;SDS011;50943;51.448;7.646;2023-07-31T07:45:47;9.20;;;4.13;;
5831;SDS011;50943;51.448;7.646;2023-07-31T07:48:14;10.67;;;5.03;;
5831;SDS011;50943;51.448;7.646;2023-07-31T07:50:42;9.57;;;4.50;;
5831;SDS011;50943;51.448;7.646;2023-07-31T07:53:08;8.70;;;4.30;;
5831;SDS011;50943;51.448;7.646;2023-07-31T07:55:35;9.00;;;4.00;;
5831;SDS011;50943;51.448;7.646;2023-07-31T07:58:01;8.13;;;3.90;;
5831;SDS011;50943;51.448;7.646;2023-07-31T08:00:29;7.00;;;3.80;;
5831;SDS011;50943;51.448;7.646;2023-07-31T08:02:56;6.50;;;3.97;;
5831;SDS011;50943;51.448;7.646;2023-07-31T08:05:23;10.00;;;4.20;;
5831;SDS011;50943;51.448;7.646;2023-07-31T08:07:50;7.60;;;4.10;;
5831;SDS011;50943;51.448;7.646;2023-07-31T08:10:16;6.83;;;4.20;;
5831;SDS011;50943;51.448;7.646;2023-07-31T08:12:43;8.40;;;5.30;;
5831;SDS011;50943;51.448;7.646;2023-07-31T08:15:10;10.23;;;4.40;;
5831;SDS011;50943;51.448;7.646;2023-07-31T08:17:38;9.90;;;4.27;;
5831;SDS011;50943;51.448;7.646;2023-07-31T08:20:05;11.83;;;4.83;;
5831;SDS011;50943;51.448;7.646;2023-07-31T08:22:32;12.93;;;5.03;;
5831;SDS011;50943;51.448;7.646;2023-07-31T08:24:59;11.97;;;5.50;;
5831;SDS011;50943;51.448;7.646;2023-07-31T08:27:26;10.33;;;5.80;;
5831;SDS011;50943;51.448;7.646;2023-07-31T08:29:52;11.70;;;5.80;;
5831;SDS011;50943;51.448;7.646;2023-07-31T08:32:19;12.40;;;5.50;;
5831;SDS011;50943;51.448;7.646;2023-07-31T08:34:47;13.60;;;5.20;;
5831;SDS011;50943;51.448;7.646;2023-07-31T08:37:14;12.97;;;5.53;;
5831;SDS011;50943;51.448;7.646;2023-07-31T08:39:40;7.43;;;4.97;;
5831;SDS011;50943;51.448;7.646;2023-07-31T08:42:07;10.50;;;5.50;;
5831;SDS011;50943;51.448;7.646;2023-07-31T08:44:35;10.37;;;4.83;;
5831;SDS011;50943;51.448;7.646;2023-07-31T08:47:02;9.10;;;5.40;;
5831;SDS011;50943;51.448;7.646;2023-07-31T08:49:28;9.70;;;4.47;;
5831;SDS011;50943;51.448;7.646;2023-07-31T08:51:56;9.30;;;5.17;;
5831;SDS011;50943;51.448;7.646;2023-07-31T08:54:23;12.07;;;5.17;;
5831;SDS011;50943;51.448;7.646;2023-07-31T08:56:49;7.67;;;4.60;;
5831;SDS011;50943;51.448;7.646;2023-07-31T08:59:16;8.63;;;5.47;;
5831;SDS011;50943;51.448;7.646;2023-07-31T09:01:46;8.33;;;5.10;;
5831;SDS011;50943;51.448;7.646;2023-07-31T09:04:16;7.43;;;4.40;;
5831;SDS011;50943;51.448;7.646;2023-07-31T09:06:44;8.60;;;4.10;;
5831;SDS011;50943;51.448;7.646;2023-07-31T09:09:12;8.13;;;3.90;;
5831;SDS011;50943;51.448;7.646;2023-07-31T09:11:38;6.70;;;4.03;;
5831;SDS011;50943;51.448;7.646;2023-07-31T09:14:05;7.30;;;4.17;;
5831;SDS011;50943;51.448;7.646;2023-07-31T09:16:34;9.60;;;4.03;;
5831;SDS011;50943;51.448;7.646;2023-07-31T09:19:00;5.93;;;3.77;;
5831;SDS011;50943;51.448;7.646;2023-07-31T09:21:28;7.07;;;3.20;;
5831;SDS011;50943;51.448;7.646;2023-07-31T09:23:55;8.90;;;3.47;;
5831;SDS011;50943;51.448;7.646;2023-07-31T09:26:33;3.87;;;2.90;;
5831;SDS011;50943;51.448;7.646;2023-07-31T09:29:00;6.37;;;3.20;;
5831;SDS011;50943;51.448;7.646;2023-07-31T09:31:31;5.43;;;3.13;;
5831;SDS011;50943;51.448;7.646;2023-07-31T09:33:59;6.60;;;3.10;;
5831;SDS011;50943;51.448;7.646;2023-07-31T09:36:28;6.27;;;2.83;;
5831;SDS011;50943;51.448;7.646;2023-07-31T09:38:55;4.10;;;2.90;;
5831;SDS011;50943;51.448;7.646;2023-07-31T09:41:22;4.87;;;2.40;;
5831;SDS011;50943;51.448;7.646;2023-07-31T09:43:54;4.37;;;2.80;;
5831;SDS011;50943;51.448;7.646;2023-07-31T09:46:20;6.77;;;3.33;;
5831;SDS011;50943;51.448;7.646;2023-07-31T09:48:47;4.90;;;3.27;;
5831;SDS011;50943;51.448;7.646;2023-07-31T09:51:14;6.40;;;3.27;;
5831;SDS011;50943;51.448;7.646;2023-07-31T09:53:40;5.20;;;2.97;;
5831;SDS011;50943;51.448;7.646;2023-07-31T09:56:07;10.10;;;3.80;;
5831;SDS011;50943;51.448;7.646;2023-07-31T09:58:34;8.90;;;3.97;;
5831;SDS011;50943;51.448;7.646;2023-07-31T10:01:02;8.20;;;4.27;;
5831;SDS011;50943;51.448;7.646;2023-07-31T10:03:29;6.60;;;3.70;;
5831;SDS011;50943;51.448;7.646;2023-07-31T10:05:58;11.43;;;4.83;;
5831;SDS011;50943;51.448;7.646;2023-07-31T10:08:27;5.70;;;3.63;;
5831;SDS011;50943;51.448;7.646;2023-07-31T10:10:55;9.80;;;4.03;;
5831;SDS011;50943;51.448;7.646;2023-07-31T10:13:24;5.63;;;3.73;;
5831;SDS011;50943;51.448;7.646;2023-07-31T10:15:52;6.27;;;3.50;;
5831;SDS011;50943;51.448;7.646;2023-07-31T10:18:20;7.13;;;3.20;;
5831;SDS011;50943;51.448;7.646;2023-07-31T10:20:46;5.33;;;3.40;;
5831;SDS011;50943;51.448;7.646;2023-07-31T10:23:13;5.97;;;3.50;;
5831;SDS011;50943;51.448;7.646;2023-07-31T10:25:41;12.00;;;3.87;;
5831;SDS011;50943;51.448;7.646;2023-07-31T10:28:08;4.10;;;2.80;;
5831;SDS011;50943;51.448;7.646;2023-07-31T10:30:36;6.43;;;3.40;;
5831;SDS011;50943;51.448;7.646;2023-07-31T10:33:03;5.40;;;3.07;;
5831;SDS011;50943;51.448;7.646;2023-07-31T10:35:32;3.70;;;2.70;;
5831;SDS011;50943;51.448;7.646;2023-07-31T10:38:08;4.90;;;2.90;;
5831;SDS011;50943;51.448;7.646;2023-07-31T10:40:36;5.60;;;2.77;;
5831;SDS011;50943;51.448;7.646;2023-07-31T10:43:03;7.20;;;3.43;;
5831;SDS011;50943;51.448;7.646;2023-07-31T10:45:31;4.93;;;3.23;;
5831;SDS011;50943;51.448;7.646;2023-07-31T10:47:58;4.30;;;3.40;;
5831;SDS011;50943;51.448;7.646;2023-07-31T10:50:27;6.43;;;3.73;;
5831;SDS011;50943;51.448;7.646;2023-07-31T10:52:56;4.90;;;3.70;;
5831;SDS011;50943;51.448;7.646;2023-07-31T10:55:24;5.40;;;3.63;;
5831;SDS011;50943;51.448;7.646;2023-07-31T10:57:52;4.57;;;3.53;;
5831;SDS011;50943;51.448;7.646;2023-07-31T11:00:20;5.83;;;3.77;;
5831;SDS011;50943;51.448;7.646;2023-07-31T11:03:02;3.80;;;3.20;;
5831;SDS011;50943;51.448;7.646;2023-07-31T11:05:46;6.73;;;3.20;;
5831;SDS011;50943;51.448;7.646;2023-07-31T11:08:16;4.37;;;3.50;;
5831;SDS011;50943;51.448;7.646;2023-07-31T11:10:44;5.17;;;3.90;;
5831;SDS011;50943;51.448;7.646;2023-07-31T11:13:12;5.50;;;3.70;;
5831;SDS011;50943;51.448;7.646;2023-07-31T11:15:38;4.90;;;3.70;;
5831;SDS011;50943;51.448;7.646;2023-07-31T11:18:05;4.50;;;3.00;;
5831;SDS011;50943;51.448;7.646;2023-07-31T11:20:33;4.90;;;3.43;;
5831;SDS011;50943;51.448;7.646;2023-07-31T11:23:02;3.97;;;3.17;;
5831;SDS011;50943;51.448;7.646;2023-07-31T11:25:31;5.27;;;3.13;;
5831;SDS011;50943;51.448;7.646;2023-07-31T11:27:57;5.03;;;3.30;;
5831;SDS011;50943;51.448;7.646;2023-07-31T11:30:27;7.27;;;3.10;;
5831;SDS011;50943;51.448;7.646;2023-07-31T11:32:55;4.80;;;3.00;;
5831;SDS011;50943;51.448;7.646;2023-07-31T11:35:21;4.47;;;3.20;;
5831;SDS011;50943;51.448;7.646;2023-07-31T11:37:48;4.90;;;3.20;;
5831;SDS011;50943;51.448;7.646;2023-07-31T11:40:15;4.50;;;3.13;;
5831;SDS011;50943;51.448;7.646;2023-07-31T11:42:43;5.20;;;3.70;;
5831;SDS011;50943;51.448;7.646;2023-07-31T11:45:10;8.57;;;3.77;;
5831;SDS011;50943;51.448;7.646;2023-07-31T11:47:37;5.80;;;3.50;;
5831;SDS011;50943;51.448;7.646;2023-07-31T11:50:04;6.80;;;4.10;;
5831;SDS011;50943;51.448;7.646;2023-07-31T11:52:33;6.90;;;4.17;;
5831;SDS011;50943;51.448;7.646;2023-07-31T11:55:02;9.43;;;5.23;;
5831;SDS011;50943;51.448;7.646;2023-07-31T11:57:31;11.20;;;4.83;;
5831;SDS011;50943;51.448;7.646;2023-07-31T11:59:59;9.27;;;5.20;;
5831;SDS011;50943;51.448;7.646;2023-07-31T12:02:26;7.10;;;4.87;;
5831;SDS011;50943;51.448;7.646;2023-07-31T12:04:53;9.23;;;5.60;;
5831;SDS011;50943;51.448;7.646;2023-07-31T12:07:20;11.07;;;5.50;;
5831;SDS011;50943;51.448;7.646;2023-07-31T12:09:51;9.00;;;5.07;;
5831;SDS011;50943;51.448;7.646;2023-07-31T12:12:19;7.77;;;5.27;;
5831;SDS011;50943;51.448;7.646;2023-07-31T12:14:46;11.40;;;6.30;;
5831;SDS011;50943;51.448;7.646;2023-07-31T12:17:14;9.03;;;6.30;;
5831;SDS011;50943;51.448;7.646;2023-07-31T12:19:41;8.43;;;6.10;;
5831;SDS011;50943;51.448;7.646;2023-07-31T12:22:11;9.33;;;6.73;;
5831;SDS011;50943;51.448;7.646;2023-07-31T12:24:41;8.27;;;6.23;;
5831;SDS011;50943;51.448;7.646;2023-07-31T12:27:10;7.70;;;6.00;;
5831;SDS011;50943;51.448;7.646;2023-07-31T12:29:37;12.87;;;6.33;;
5831;SDS011;50943;51.448;7.646;2023-07-31T12:32:04;8.83;;;5.53;;
5831;SDS011;50943;51.448;7.646;2023-07-31T12:34:35;9.70;;;5.37;;
5831;SDS011;50943;51.448;7.646;2023-07-31T12:37:08;9.40;;;6.17;;
5831;SDS011;50943;51.448;7.646;2023-07-31T12:39:34;7.50;;;5.20;;
5831;SDS011;50943;51.448;7.646;2023-07-31T12:42:01;7.80;;;4.97;;
5831;SDS011;50943;51.448;7.646;2023-07-31T12:44:27;6.93;;;5.00;;
5831;SDS011;50943;51.448;7.646;2023-07-31T12:46:54;5.80;;;4.97;;
5831;SDS011;50943;51.448;7.646;2023-07-31T12:49:20;9.30;;;3.80;;
5831;SDS011;50943;51.448;7.646;2023-07-31T12:51:48;6.67;;;3.07;;
5831;SDS011;50943;51.448;7.646;2023-07-31T12:54:15;5.10;;;3.00;;
5831;SDS011;50943;51.448;7.646;2023-07-31T12:56:41;4.53;;;2.70;;
5831;SDS011;50943;51.448;7.646;2023-07-31T12:59:08;6.13;;;2.87;;
5831;SDS011;50943;51.448;7.646;2023-07-31T13:01:35;5.23;;;3.10;;
5831;SDS011;50943;51.448;7.646;2023-07-31T13:04:01;5.17;;;2.50;;
5831;SDS011;50943;51.448;7.646;2023-07-31T13:06:28;4.70;;;2.80;;
5831;SDS011;50943;51.448;7.646;2023-07-31T13:08:56;3.80;;;2.60;;
5831;SDS011;50943;51.448;7.646;2023-07-31T13:11:22;3.20;;;2.27;;
5831;SDS011;50943;51.448;7.646;2023-07-31T13:13:49;3.13;;;2.10;;
5831;SDS011;50943;51.448;7.646;2023-07-31T13:16:15;2.93;;;2.27;;
5831;SDS011;50943;51.448;7.646;2023-07-31T13:18:42;4.50;;;2.50;;
5831;SDS011;50943;51.448;7.646;2023-07-31T13:21:08;3.50;;;2.20;;
5831;SDS011;50943;51.448;7.646;2023-07-31T13:23:35;4.83;;;2.20;;
5831;SDS011;50943;51.448;7.646;2023-07-31T13:26:03;3.97;;;2.57;;
5831;SDS011;50943;51.448;7.646;2023-07-31T13:28:29;3.77;;;2.50;;
5831;SDS011;50943;51.448;7.646;2023-07-31T13:30:56;6.83;;;2.63;;
5831;SDS011;50943;51.448;7.646;2023-07-31T13:33:22;4.40;;;2.63;;
5831;SDS011;50943;51.448;7.646;2023-07-31T13:35:49;4.83;;;2.90;;
5831;SDS011;50943;51.448;7.646;2023-07-31T13:38:15;4.70;;;2.63;;
5831;SDS011;50943;51.448;7.646;2023-07-31T13:40:43;4.70;;;2.73;;
5831;SDS011;50943;51.448;7.646;2023-07-31T13:43:11;3.00;;;2.00;;
5831;SDS011;50943;51.448;7.646;2023-07-31T13:45:37;4.97;;;2.43;;
5831;SDS011;50943;51.448;7.646;2023-07-31T13:48:04;3.50;;;2.20;;
5831;SDS011;50943;51.448;7.646;2023-07-31T13:50:30;3.30;;;2.30;;
5831;SDS011;50943;51.448;7.646;2023-07-31T13:52:57;3.50;;;2.10;;
5831;SDS011;50943;51.448;7.646;2023-07-31T13:55:24;3.80;;;2.40;;
5831;SDS011;50943;51.448;7.646;2023-07-31T13:57:50;3.93;;;2.10;;
5831;SDS011;50943;51.448;7.646;2023-07-31T14:00:19;4.07;;;2.53;;
5831;SDS011;50943;51.448;7.646;2023-07-31T14:02:47;8.90;;;2.20;;
5831;SDS011;50943;51.448;7.646;2023-07-31T14:05:13;3.20;;;2.20;;
5831;SDS011;50943;51.448;7.646;2023-07-31T14:07:40;5.53;;;2.43;;
5831;SDS011;50943;51.448;7.646;2023-07-31T14:10:07;3.10;;;2.50;;
5831;SDS011;50943;51.448;7.646;2023-07-31T14:12:34;5.23;;;3.10;;
5831;SDS011;50943;51.448;7.646;2023-07-31T14:15:00;5.20;;;2.80;;
5831;SDS011;50943;51.448;7.646;2023-07-31T14:17:29;8.63;;;3.07;;
5831;SDS011;50943;51.448;7.646;2023-07-31T14:19:56;5.60;;;3.63;;
5831;SDS011;50943;51.448;7.646;2023-07-31T14:22:27;4.33;;;3.30;;
5831;SDS011;50943;51.448;7.646;2023-07-31T14:24:54;4.97;;;3.70;;
5831;SDS011;50943;51.448;7.646;2023-07-31T14:27:21;11.90;;;3.90;;
5831;SDS011;50943;51.448;7.646;2023-07-31T14:29:48;5.00;;;3.50;;
5831;SDS011;50943;51.448;7.646;2023-07-31T14:32:14;5.20;;;3.57;;
5831;SDS011;50943;51.448;7.646;2023-07-31T14:34:42;5.67;;;3.90;;
5831;SDS011;50943;51.448;7.646;2023-07-31T14:37:09;7.13;;;3.30;;
5831;SDS011;50943;51.448;7.646;2023-07-31T14:39:35;6.30;;;3.47;;
5831;SDS011;50943;51.448;7.646;2023-07-31T14:42:02;4.30;;;3.20;;
5831;SDS011;50943;51.448;7.646;2023-07-31T14:44:28;6.53;;;3.70;;
5831;SDS011;50943;51.448;7.646;2023-07-31T14:46:55;5.30;;;3.13;;
5831;SDS011;50943;51.448;7.646;2023-07-31T14:49:21;5.33;;;3.00;;
5831;SDS011;50943;51.448;7.646;2023-07-31T14:51:49;7.10;;;3.30;;
5831;SDS011;50943;51.448;7.646;2023-07-31T14:54:16;4.80;;;2.40;;
5831;SDS011;50943;51.448;7.646;2023-07-31T14:56:42;4.67;;;2.80;;